Time;durP1;ratioP1;P1;durP2;ratioP2;P2;SDS_P1;SDS_P2;PMS_P1;PMS_P2;Temp;Humidity;BMP_temperature;BMP_pressure;BME280_temperature;BME280_humidity;BME280_pressure;Samples;Min_cycle;Max_cycle;Signal;HPM_P1;HPM_P2
2023/08/01 00:00:29;;;;;;;13.25;11.52;;;;;;;16.25;100.00;99798.34;5015835;28;20036;-89
2023/08/01 00:03:01;;;;;;;13.20;11.82;;;;;;;16.25;100.00;99786.78;5015743;28;20503;-89
2023/08/01 00:05:27;;;;;;;15.05;11.38;;;;;;;16.08;100.00;99750.97;5033663;28;20366;-89
2023/08/01 00:07:52;;;;;;;12.60;11.32;;;;;;;16.24;100.00;99779.75;5015897;28;20025;-88
2023/08/01 00:10:18;;;;;;;14.23;10.70;;;;;;;16.15;100.00;99781.53;5033139;28;20029;-88
2023/08/01 00:12:46;;;;;;;12.38;11.07;;;;;;;16.05;100.00;99760.16;5015909;28;20358;-89
2023/08/01 00:15:12;;;;;;;12.10;10.98;;;;;;;16.16;100.00;99771.66;5015657;28;20447;-90
2023/08/01 00:17:40;;;;;;;14.57;10.50;;;;;;;16.13;100.00;99764.75;5015929;28;20029;-89
2023/08/01 00:20:06;;;;;;;13.30;10.70;;;;;;;16.07;100.00;99779.63;5015610;28;20393;-89
2023/08/01 00:22:35;;;;;;;12.25;10.65;;;;;;;15.85;100.00;99756.03;5015681;28;20435;-89
2023/08/01 00:25:00;;;;;;;16.20;10.68;;;;;;;16.03;100.00;99788.16;5014992;28;20124;-89
2023/08/01 00:27:26;;;;;;;13.88;10.60;;;;;;;16.00;100.00;99765.19;5033466;28;20033;-89
2023/08/01 00:29:51;;;;;;;12.43;11.00;;;;;;;15.95;100.00;99763.97;5033051;28;20025;-89
2023/08/01 00:32:16;;;;;;;17.27;11.05;;;;;;;15.85;100.00;99753.34;5015465;28;20092;-89
2023/08/01 00:34:42;;;;;;;13.02;10.90;;;;;;;15.97;100.00;99773.56;5015802;28;20060;-90
2023/08/01 00:37:07;;;;;;;12.15;10.65;;;;;;;15.96;100.00;99769.16;5015522;28;20022;-89
2023/08/01 00:39:33;;;;;;;14.88;11.30;;;;;;;15.98;100.00;99760.97;5015949;28;20384;-89
2023/08/01 00:41:59;;;;;;;15.38;12.35;;;;;;;15.84;100.00;99751.66;5033044;28;20021;-89
2023/08/01 00:44:24;;;;;;;14.95;11.13;;;;;;;15.92;100.00;99775.84;5015156;28;20052;-89
2023/08/01 00:46:50;;;;;;;13.45;10.88;;;;;;;15.89;100.00;99777.00;5033128;28;20075;-89
2023/08/01 00:49:16;;;;;;;13.73;11.25;;;;;;;15.89;100.00;99768.97;5015291;28;20060;-89
2023/08/01 00:51:43;;;;;;;13.63;11.05;;;;;;;15.77;100.00;99770.22;5015558;28;20064;-89
2023/08/01 00:54:08;;;;;;;14.50;11.07;;;;;;;15.39;100.00;99710.63;5014734;28;20026;-89
2023/08/01 00:56:37;;;;;;;16.08;11.00;;;;;;;15.51;100.00;99732.66;5015376;28;20110;-89
2023/08/01 00:59:03;;;;;;;12.68;11.18;;;;;;;15.12;100.00;99690.16;5014509;28;20508;-90
2023/08/01 01:01:28;;;;;;;14.23;11.13;;;;;;;15.67;100.00;99764.06;5015301;28;20025;-90
2023/08/01 01:03:54;;;;;;;11.40;10.00;;;;;;;15.45;100.00;99733.28;5014734;28;20022;-90
2023/08/01 01:06:26;;;;;;;17.38;11.27;;;;;;;15.58;100.00;99752.44;5033133;28;20029;-89
2023/08/01 01:08:53;;;;;;;12.73;10.43;;;;;;;15.59;100.00;99759.50;5014556;28;20021;-89
2023/08/01 01:11:21;;;;;;;11.63;10.23;;;;;;;15.60;100.00;99750.47;5015210;28;20021;-89
2023/08/01 01:13:46;;;;;;;13.02;9.90;;;;;;;15.38;100.00;99724.16;5014852;28;20033;-90
2023/08/01 01:16:12;;;;;;;19.27;10.05;;;;;;;15.60;100.00;99752.31;5014902;28;20124;-89
2023/08/01 01:18:40;;;;;;;13.48;9.60;;;;;;;15.52;100.00;99744.19;5015052;28;20025;-88
2023/08/01 01:21:08;;;;;;;13.93;10.03;;;;;;;15.47;100.00;99744.69;5032678;28;20045;-89
2023/08/01 01:23:34;;;;;;;15.30;9.55;;;;;;;15.23;100.00;99726.53;5032120;28;20284;-88
2023/08/01 01:26:00;;;;;;;13.15;9.48;;;;;;;15.34;100.00;99746.91;5014839;28;20048;-89
2023/08/01 01:28:30;;;;;;;15.40;9.27;;;;;;;15.36;100.00;99750.28;5014831;28;20444;-90
2023/08/01 01:31:01;;;;;;;16.38;9.35;;;;;;;15.34;100.00;99754.94;5014633;28;20025;-89
2023/08/01 01:33:27;;;;;;;12.82;9.23;;;;;;;15.41;100.00;99767.59;5014468;28;20057;-90
2023/08/01 01:35:54;;;;;;;16.33;9.68;;;;;;;15.36;100.00;99759.16;5014948;28;20535;-89
2023/08/01 01:38:20;;;;;;;15.45;9.95;;;;;;;15.11;100.00;99723.25;5014521;28;20017;-89
2023/08/01 01:40:45;;;;;;;14.88;9.88;;;;;;;15.27;100.00;99751.22;5032647;28;20033;-88
2023/08/01 01:43:10;;;;;;;15.82;9.38;;;;;;;15.11;100.00;99736.66;5032099;28;20070;-89
2023/08/01 01:45:36;;;;;;;17.30;9.82;;;;;;;15.21;100.00;99748.16;5014747;28;20033;-89
2023/08/01 01:48:01;;;;;;;15.27;10.32;;;;;;;15.19;100.00;99751.97;5011457;28;20018;-89
2023/08/01 01:50:27;;;;;;;18.45;10.32;;;;;;;15.23;100.00;99750.66;4994985;28;20473;-89
2023/08/01 01:52:52;;;;;;;15.32;10.05;;;;;;;15.04;100.00;99726.72;4997951;28;20025;-90
2023/08/01 01:55:18;;;;;;;12.57;9.38;;;;;;;15.18;100.00;99751.13;5015899;28;20022;-89
2023/08/01 01:57:43;;;;;;;16.23;10.73;;;;;;;15.17;100.00;99751.28;5015024;28;20041;-89
2023/08/01 02:00:10;;;;;;;18.63;10.52;;;;;;;15.03;100.00;99725.88;4998607;28;20030;-89
2023/08/01 02:02:36;;;;;;;15.23;10.55;;;;;;;15.01;100.00;99727.88;4998489;28;20133;-90
2023/08/01 02:05:03;;;;;;;17.85;12.15;;;;;;;14.95;100.00;99731.16;4998154;28;20033;-89
2023/08/01 02:07:29;;;;;;;19.00;11.57;;;;;;;14.98;100.00;99741.56;5016153;28;20022;-90
2023/08/01 02:09:59;;;;;;;23.25;12.15;;;;;;;15.02;100.00;99752.81;4997874;28;20025;-88
2023/08/01 02:12:24;;;;;;;18.35;11.93;;;;;;;15.00;100.00;99747.63;4998201;28;20373;-89
2023/08/01 02:14:50;;;;;;;17.95;13.23;;;;;;;15.01;100.00;99748.47;4998153;28;20044;-88
2023/08/01 02:17:16;;;;;;;20.58;13.30;;;;;;;14.97;100.00;99743.41;5016147;28;20077;-90
2023/08/01 02:19:41;;;;;;;19.13;13.60;;;;;;;14.89;100.00;99734.44;4998348;28;20034;-89
2023/08/01 02:22:07;;;;;;;22.75;14.75;;;;;;;14.98;100.00;99753.13;4998157;28;20026;-89
2023/08/01 02:24:32;;;;;;;16.80;13.85;;;;;;;14.87;100.00;99742.63;4997756;28;20033;-89
2023/08/01 02:27:00;;;;;;;21.45;14.88;;;;;;;14.80;100.00;99728.16;5015673;28;20061;-89
2023/08/01 02:29:25;;;;;;;21.02;15.32;;;;;;;14.88;100.00;99748.81;4998268;28;20025;-88
2023/08/01 02:31:51;;;;;;;20.83;16.35;;;;;;;14.85;100.00;99749.94;5015649;28;20037;-88
2023/08/01 02:34:19;;;;;;;22.45;15.13;;;;;;;14.85;100.00;99749.94;4997810;28;20409;-88
2023/08/01 02:36:47;;;;;;;25.67;15.80;;;;;;;14.84;100.00;99747.44;5015664;28;20030;-88
2023/08/01 02:39:12;;;;;;;29.05;17.10;;;;;;;14.87;100.00;99749.81;5001159;28;20478;-89
2023/08/01 02:41:37;;;;;;;22.23;16.63;;;;;;;14.62;100.00;99708.53;5015782;28;20037;-89
2023/08/01 02:44:03;;;;;;;21.58;16.13;;;;;;;14.90;100.00;99758.38;4997600;28;20202;-89
2023/08/01 02:46:31;;;;;;;22.80;15.60;;;;;;;14.84;100.00;99752.78;5016216;28;20040;-89
2023/08/01 02:48:59;;;;;;;22.05;16.70;;;;;;;14.91;100.00;99768.13;5017020;28;20032;-89
2023/08/01 02:51:26;;;;;;;20.42;16.23;;;;;;;14.70;100.00;99735.41;5035572;28;20021;-89
2023/08/01 02:53:51;;;;;;;23.27;17.58;;;;;;;14.92;100.00;99771.63;5017182;28;20032;-88
2023/08/01 02:56:17;;;;;;;22.20;18.10;;;;;;;14.83;100.00;99764.50;5017885;28;20455;-89
2023/08/01 02:58:46;;;;;;;24.92;18.48;;;;;;;14.79;100.00;99749.72;5017633;28;20051;-88
2023/08/01 03:01:13;;;;;;;27.83;18.02;;;;;;;14.94;100.00;99761.59;5017343;28;20477;-89
2023/08/01 03:03:39;;;;;;;28.30;19.50;;;;;;;14.82;100.00;99738.72;5017260;28;20036;-89
2023/08/01 03:06:04;;;;;;;28.55;19.45;;;;;;;14.96;100.00;99764.97;5017300;28;20060;-90
2023/08/01 03:08:30;;;;;;;24.65;19.20;;;;;;;14.98;100.00;99757.63;5016786;28;20037;-89
2023/08/01 03:10:56;;;;;;;26.65;20.33;;;;;;;15.00;100.00;99755.66;5016472;28;20128;-88
2023/08/01 03:13:24;;;;;;;25.80;20.23;;;;;;;14.76;100.00;99716.94;5035042;28;20028;-89
2023/08/01 03:15:50;;;;;;;31.17;21.02;;;;;;;14.85;100.00;99744.59;5035248;28;20112;-89
2023/08/01 03:18:15;;;;;;;25.35;20.55;;;;;;;14.93;100.00;99757.22;5017453;28;20850;-88
2023/08/01 03:20:41;;;;;;;29.00;21.88;;;;;;;14.80;100.00;99738.03;5035059;28;20025;-89
2023/08/01 03:23:07;;;;;;;30.35;22.58;;;;;;;14.89;100.00;99750.50;5034684;28;20021;-89
2023/08/01 03:25:32;;;;;;;28.75;23.17;;;;;;;14.97;100.00;99759.47;5016746;28;20025;-88
2023/08/01 03:27:58;;;;;;;29.20;23.25;;;;;;;14.99;100.00;99770.84;5016911;28;20490;-89
2023/08/01 03:30:26;;;;;;;30.75;24.55;;;;;;;14.88;100.00;99755.03;5035081;28;20354;-89
2023/08/01 03:32:51;;;;;;;31.75;24.02;;;;;;;14.91;100.00;99756.53;5034518;28;20493;-89
2023/08/01 03:35:20;;;;;;;33.83;25.05;;;;;;;14.94;100.00;99765.13;5016664;28;20036;-89
2023/08/01 03:37:48;;;;;;;37.03;26.37;;;;;;;14.74;100.00;99734.97;5016583;28;20026;-89
2023/08/01 03:40:16;;;;;;;34.20;25.80;;;;;;;14.93;100.00;99765.28;5016241;28;20028;-89
2023/08/01 03:42:41;;;;;;;36.13;27.30;;;;;;;14.88;100.00;99755.03;5016363;28;20029;-89
2023/08/01 03:45:07;;;;;;;35.30;25.98;;;;;;;14.74;100.00;99734.97;5016163;28;20613;-89
2023/08/01 03:47:33;;;;;;;38.10;26.67;;;;;;;14.94;100.00;99778.53;5034203;28;20041;-88
2023/08/01 03:49:58;;;;;;;42.25;27.58;;;;;;;14.86;100.00;99764.19;5016052;28;20404;-89
2023/08/01 03:52:24;;;;;;;38.33;29.17;;;;;;;14.83;100.00;99748.44;5034018;28;20021;-89
2023/08/01 03:54:56;;;;;;;38.97;28.05;;;;;;;14.98;100.00;99781.72;5033404;28;20029;-88
2023/08/01 03:57:22;;;;;;;38.22;29.95;;;;;;;14.90;100.00;99765.56;5016224;28;20104;-88
2023/08/01 03:59:47;;;;;;;41.20;28.85;;;;;;;14.86;100.00;99766.88;5016209;28;20033;-89
2023/08/01 04:02:13;;;;;;;38.10;29.05;;;;;;;14.89;100.00;99777.28;5016236;28;20029;-89
2023/08/01 04:04:38;;;;;;;37.50;29.02;;;;;;;14.84;100.00;99756.31;5016185;28;20088;-89
2023/08/01 04:07:04;;;;;;;35.03;29.35;;;;;;;14.64;100.00;99728.81;5015839;28;20025;-88
2023/08/01 04:09:32;;;;;;;38.55;29.45;;;;;;;14.89;100.00;99761.22;5015568;28;20033;-89
2023/08/01 04:11:58;;;;;;;37.55;29.90;;;;;;;14.76;100.00;99742.84;5016062;28;20369;-89
2023/08/01 04:14:23;;;;;;;37.35;29.90;;;;;;;14.96;100.00;99771.16;5033077;28;20025;-88
2023/08/01 04:16:54;;;;;;;37.75;28.15;;;;;;;14.82;100.00;99765.47;5033662;28;20111;-88
2023/08/01 04:19:19;;;;;;;35.50;27.92;;;;;;;14.89;100.00;99766.56;5015752;28;20030;-90
2023/08/01 04:21:45;;;;;;;36.75;28.65;;;;;;;14.89;100.00;99772.78;5015611;28;20030;-88
2023/08/01 04:24:10;;;;;;;39.25;27.90;;;;;;;14.67;100.00;99739.22;5032716;28;20113;-88
2023/08/01 04:26:38;;;;;;;42.13;28.98;;;;;;;14.82;100.00;99765.47;5033352;28;20112;-89
2023/08/01 04:29:03;;;;;;;38.22;27.52;;;;;;;14.87;100.00;99765.88;5015481;28;20037;-88
2023/08/01 04:31:31;;;;;;;41.40;28.48;;;;;;;14.58;100.00;99715.22;5015767;28;20033;-89
2023/08/01 04:33:57;;;;;;;40.20;29.15;;;;;;;14.93;100.00;99763.44;5015302;28;20049;-88
2023/08/01 04:36:22;;;;;;;38.38;28.27;;;;;;;14.84;100.00;99753.63;5033164;28;20440;-89
2023/08/01 04:38:50;;;;;;;39.63;28.40;;;;;;;14.93;100.00;99768.78;5015644;28;20064;-88
2023/08/01 04:41:15;;;;;;;41.55;28.50;;;;;;;14.86;100.00;99758.84;5015663;28;20033;-88
2023/08/01 04:43:46;;;;;;;45.92;30.35;;;;;;;14.67;100.00;99730.34;5015702;28;20025;-89
2023/08/01 04:46:11;;;;;;;38.00;28.13;;;;;;;14.90;100.00;99765.56;5016594;28;20022;-87
2023/08/01 04:48:36;;;;;;;36.70;27.85;;;;;;;14.93;100.00;99773.31;5015338;28;20511;-89
2023/08/01 04:51:05;;;;;;;38.92;28.77;;;;;;;14.70;100.00;99733.56;5015286;28;20029;-89
2023/08/01 04:53:30;;;;;;;38.78;27.52;;;;;;;14.94;100.00;99778.53;5015269;28;20025;-89
2023/08/01 04:56:00;;;;;;;46.58;27.98;;;;;;;14.97;100.00;99785.38;5015348;28;20029;-89
2023/08/01 04:58:26;;;;;;;41.05;28.45;;;;;;;14.93;100.00;99773.31;5015180;28;20028;-89
2023/08/01 05:00:51;;;;;;;41.45;27.25;;;;;;;15.03;100.00;99784.81;5015205;28;20466;-89
2023/08/01 05:03:16;;;;;;;38.28;27.58;;;;;;;14.87;100.00;99765.88;5032865;28;20037;-88
2023/08/01 05:05:44;;;;;;;35.22;26.65;;;;;;;14.95;100.00;99774.84;5015030;28;20532;-88
2023/08/01 05:08:09;;;;;;;34.33;24.58;;;;;;;15.04;100.00;99791.00;5032631;28;20111;-89
2023/08/01 05:10:35;;;;;;;35.67;26.67;;;;;;;15.05;100.00;99788.16;5031130;28;20503;-88
2023/08/01 05:13:03;;;;;;;34.90;24.80;;;;;;;15.06;100.00;99789.84;5015079;28;20101;-88
2023/08/01 05:15:30;;;;;;;35.60;25.23;;;;;;;14.88;100.00;99768.41;5015010;28;20021;-89
2023/08/01 05:17:56;;;;;;;38.03;26.38;;;;;;;14.94;100.00;99780.31;5032554;28;20036;-89
2023/08/01 05:20:21;;;;;;;32.53;23.50;;;;;;;14.94;100.00;99777.66;5032387;28;20117;-88
2023/08/01 05:22:49;;;;;;;32.97;24.35;;;;;;;14.92;100.00;99788.53;5032490;28;20053;-88
2023/08/01 05:25:15;;;;;;;34.63;24.50;;;;;;;14.96;100.00;99794.41;5032071;28;20040;-88
2023/08/01 05:27:40;;;;;;;31.45;24.20;;;;;;;14.94;100.00;99791.91;5017447;28;20037;-88
2023/08/01 05:30:06;;;;;;;27.75;23.08;;;;;;;14.96;100.00;99795.25;5036202;28;20033;-88
2023/08/01 05:32:32;;;;;;;29.08;23.17;;;;;;;14.86;100.00;99781.09;5036250;28;20050;-88
2023/08/01 05:34:58;;;;;;;34.83;23.45;;;;;;;14.92;100.00;99790.38;5036009;28;20511;-88
2023/08/01 05:37:24;;;;;;;34.78;24.73;;;;;;;15.00;100.00;99795.81;5036174;28;20033;-89
2023/08/01 05:39:51;;;;;;;29.33;24.23;;;;;;;15.02;100.00;99795.66;5035926;28;20029;-88
2023/08/01 05:42:17;;;;;;;32.13;23.50;;;;;;;14.98;100.00;99790.59;5018547;28;20067;-88
2023/08/01 05:44:42;;;;;;;36.92;23.95;;;;;;;14.90;100.00;99763.72;5036271;28;20021;-88
2023/08/01 05:47:11;;;;;;;33.10;22.80;;;;;;;14.95;100.00;99765.97;5018002;28;20030;-88
2023/08/01 05:49:36;;;;;;;31.63;22.80;;;;;;;14.64;100.00;99726.16;5017886;28;20026;-89
2023/08/01 05:52:02;;;;;;;32.75;23.23;;;;;;;15.05;100.00;99785.47;5018035;28;20079;-89
2023/08/01 05:54:29;;;;;;;33.47;23.52;;;;;;;15.19;100.00;99795.66;5035298;28;20381;-89
2023/08/01 05:56:54;;;;;;;29.67;22.77;;;;;;;15.29;100.00;99816.19;5017997;28;20021;-88
2023/08/01 05:59:20;;;;;;;28.00;21.10;;;;;;;15.16;100.00;99795.97;5017844;28;20033;-88
2023/08/01 06:01:45;;;;;;;31.10;21.73;;;;;;;15.19;100.00;99798.34;5035940;28;20028;-88
2023/08/01 06:04:11;;;;;;;29.85;22.75;;;;;;;15.35;100.00;99811.06;5035319;28;20029;-88
2023/08/01 06:06:36;;;;;;;30.90;22.55;;;;;;;15.42;100.00;99813.97;5017691;28;20071;-89
2023/08/01 06:09:02;;;;;;;31.10;22.85;;;;;;;15.51;100.00;99818.41;5017520;28;20112;-88
2023/08/01 06:11:30;;;;;;;29.25;21.95;;;;;;;15.54;100.00;99815.41;5017766;28;20026;-88
2023/08/01 06:13:55;;;;;;;31.58;21.80;;;;;;;15.59;100.00;99815.81;5017687;28;20103;-88
2023/08/01 06:16:20;;;;;;;33.42;22.13;;;;;;;15.59;100.00;99806.94;5017791;28;20064;-88
2023/08/01 06:18:46;;;;;;;29.05;21.30;;;;;;;15.54;100.00;99801.19;5035538;28;20372;-88
2023/08/01 06:21:11;;;;;;;26.33;20.70;;;;;;;15.57;100.00;99807.06;5017757;28;20034;-87
2023/08/01 06:23:37;;;;;;;31.92;20.38;;;;;;;15.72;100.00;99834.19;5017136;28;20021;-87
2023/08/01 06:26:02;;;;;;;34.42;21.88;;;;;;;15.65;100.00;99825.06;5017482;28;20036;-88
2023/08/01 06:28:28;;;;;;;30.05;21.73;;;;;;;15.61;100.00;99818.31;5035106;28;20412;-88
2023/08/01 06:30:53;;;;;;;33.53;21.92;;;;;;;15.41;100.00;99805.09;5017596;28;20116;-88
2023/08/01 06:33:19;;;;;;;27.20;20.55;;;;;;;15.59;100.00;99829.22;5016853;28;20055;-88
2023/08/01 06:35:44;;;;;;;30.83;21.48;;;;;;;15.59;100.00;99829.22;5017655;28;20511;-88
2023/08/01 06:38:10;;;;;;;28.40;21.65;;;;;;;15.69;100.00;99826.47;5016510;28;20416;-87
2023/08/01 06:40:36;;;;;;;33.50;22.98;;;;;;;15.76;100.00;99807.91;5017465;28;20033;-88
2023/08/01 06:43:01;;;;;;;26.05;21.15;;;;;;;15.98;100.00;99830.72;5017194;28;20020;-87
2023/08/01 06:45:29;;;;;;;29.10;22.05;;;;;;;15.96;100.00;99805.88;5017182;28;20061;-88
2023/08/01 06:47:57;;;;;;;25.80;19.75;;;;;;;16.23;100.00;99831.69;5016662;28;20040;-88
2023/08/01 06:50:23;;;;;;;25.92;19.08;;;;;;;16.31;100.00;99826.41;5017132;28;20453;-87
2023/08/01 06:52:50;;;;;;;23.83;17.83;;;;;;;16.31;100.00;99834.44;5017151;28;20026;-87
2023/08/01 06:55:16;;;;;;;22.77;17.02;;;;;;;16.25;100.00;99843.97;5034487;28;20063;-88
2023/08/01 06:57:42;;;;;;;23.33;17.02;;;;;;;16.13;100.00;99832.66;5017009;28;20021;-87
2023/08/01 07:00:08;;;;;;;25.42;16.88;;;;;;;16.12;100.00;99852.44;5016620;28;20022;-87
2023/08/01 07:02:35;;;;;;;21.27;16.60;;;;;;;15.97;100.00;99832.56;5016886;28;20337;-87
2023/08/01 07:05:00;;;;;;;21.73;16.08;;;;;;;16.07;100.00;99848.53;5016720;28;20036;-87
2023/08/01 07:07:26;;;;;;;19.88;14.48;;;;;;;15.96;100.00;99833.53;5034711;28;20029;-88
2023/08/01 07:09:51;;;;;;;20.05;14.40;;;;;;;16.15;100.00;99826.28;5034359;28;20064;-88
2023/08/01 07:12:17;;;;;;;23.08;14.55;;;;;;;16.40;100.00;99854.13;5034476;28;20071;-87
2023/08/01 07:14:43;;;;;;;17.45;12.38;;;;;;;16.35;100.00;99843.84;5016590;28;20491;-87
2023/08/01 07:17:08;;;;;;;21.13;12.98;;;;;;;16.54;100.00;99859.75;5016326;28;20171;-88
2023/08/01 07:19:33;;;;;;;19.45;11.20;;;;;;;16.41;100.00;99840.53;5034163;28;20021;-87
2023/08/01 07:22:01;;;;;;;20.15;11.50;;;;;;;16.38;100.00;99814.00;5034399;28;20531;-87
2023/08/01 07:24:27;;;;;;;18.05;11.48;;;;;;;16.75;100.00;99853.13;5015987;28;20029;-87
2023/08/01 07:26:52;;;;;;;14.00;9.82;;;;;;;16.53;100.00;99839.28;5016460;28;20029;-87
2023/08/01 07:29:20;;;;;;;17.45;10.63;;;;;;;16.41;100.00;99819.06;5016028;28;20021;-87
2023/08/01 07:31:48;;;;;;;18.25;10.32;;;;;;;16.53;100.00;99838.41;5016380;28;20116;-87
2023/08/01 07:34:13;;;;;;;18.05;10.70;;;;;;;16.47;100.00;99836.38;5033651;28;20041;-86
2023/08/01 07:36:39;;;;;;;16.98;10.07;;;;;;;16.41;100.00;99839.69;5034150;28;20116;-87
2023/08/01 07:39:04;;;;;;;13.90;9.30;;;;;;;16.67;100.00;99853.91;5016254;28;20067;-86
2023/08/01 07:41:35;;;;;;;17.05;9.52;;;;;;;16.72;100.00;99862.34;5016206;28;20055;-87
2023/08/01 07:44:03;;;;;;;18.73;9.82;;;;;;;16.71;100.00;99854.47;5015846;28;20039;-88
2023/08/01 07:46:31;;;;;;;15.07;8.80;;;;;;;16.66;100.00;99836.13;5016371;28;20481;-87
2023/08/01 07:48:56;;;;;;;12.82;8.38;;;;;;;16.65;100.00;99849.72;5021705;28;20030;-87
2023/08/01 07:51:24;;;;;;;15.00;8.90;;;;;;;16.57;100.00;99837.09;4996085;28;20033;-87
2023/08/01 07:53:52;;;;;;;15.10;8.75;;;;;;;16.77;100.00;99876.16;4995994;28;20018;-87
2023/08/01 07:56:19;;;;;;;14.90;7.28;;;;;;;16.70;100.00;99828.59;5014064;28;20029;-87
2023/08/01 07:58:47;;;;;;;11.93;6.63;;;;;;;16.79;100.00;99841.94;4996122;28;20366;-87
2023/08/01 08:01:12;;;;;;;13.48;7.00;;;;;;;16.84;100.00;99860.25;4996200;28;20456;-87
2023/08/01 08:03:38;;;;;;;13.05;6.47;;;;;;;16.74;100.00;99848.78;4996237;28;20029;-87
2023/08/01 08:06:05;;;;;;;14.85;6.15;;;;;;;16.63;100.00;99841.00;4996077;28;20029;-88
2023/08/01 08:08:33;;;;;;;10.38;5.88;;;;;;;16.74;100.00;99865.72;5013178;28;20489;-86
2023/08/01 08:10:59;;;;;;;10.52;5.80;;;;;;;16.84;100.00;99876.34;5013929;28;20037;-88
2023/08/01 08:13:25;;;;;;;11.20;6.43;;;;;;;17.08;100.00;99877.47;4995597;28;20481;-87
2023/08/01 08:15:51;;;;;;;14.73;7.00;;;;;;;17.24;100.00;99856.03;4996064;28;20026;-87
2023/08/01 08:18:18;;;;;;;11.52;7.05;;;;;;;17.58;100.00;99866.66;4995845;28;20037;-87
2023/08/01 08:20:45;;;;;;;10.75;5.90;;;;;;;17.70;100.00;99859.09;4996441;28;20021;-87
2023/08/01 08:23:13;;;;;;;12.43;5.70;;;;;;;17.73;100.00;99874.06;4995658;28;20105;-87
2023/08/01 08:25:39;;;;;;;8.55;5.32;;;;;;;17.65;99.93;99865.00;4996050;28;20026;-88
2023/08/01 08:28:05;;;;;;;13.63;5.93;;;;;;;17.68;100.00;99867.34;5013340;28;20026;-87
2023/08/01 08:30:30;;;;;;;8.57;5.63;;;;;;;17.22;99.40;99802.44;5013171;28;20095;-87
2023/08/01 08:32:57;;;;;;;13.05;6.30;;;;;;;17.74;99.63;99879.28;4995499;28;20397;-88
2023/08/01 08:35:23;;;;;;;9.80;6.05;;;;;;;17.87;100.00;99890.41;4995724;28;20030;-88
2023/08/01 08:37:49;;;;;;;10.07;5.82;;;;;;;17.69;99.61;99844.81;5013850;28;20100;-88
2023/08/01 08:40:15;;;;;;;15.02;5.93;;;;;;;17.95;98.36;99886.06;5013093;28;20113;-87
2023/08/01 08:42:43;;;;;;;15.00;5.60;;;;;;;17.81;98.52;99880.31;4996037;28;20374;-88
2023/08/01 08:45:10;;;;;;;9.23;5.80;;;;;;;17.55;100.00;99839.25;4995959;28;20056;-88
2023/08/01 08:47:44;;;;;;;10.02;5.35;;;;;;;17.73;99.37;99891.03;4997159;28;20026;-88
2023/08/01 08:50:10;;;;;;;15.32;5.90;;;;;;;17.54;97.52;99894.06;5015660;28;20029;-88
2023/08/01 08:52:37;;;;;;;11.05;5.47;;;;;;;17.31;98.06;99891.97;5016002;28;20056;-88
2023/08/01 08:55:04;;;;;;;14.85;5.85;;;;;;;17.05;100.00;99872.41;5015417;28;20026;-88
2023/08/01 08:57:32;;;;;;;13.57;5.95;;;;;;;17.18;100.00;99897.81;5015279;28;20362;-88
2023/08/01 08:59:59;;;;;;;8.57;4.82;;;;;;;17.11;100.00;99901.31;5032726;28;20040;-88
2023/08/01 09:02:28;;;;;;;10.75;5.20;;;;;;;17.03;100.00;99905.66;5014726;28;20033;-88
2023/08/01 09:04:53;;;;;;;10.15;4.63;;;;;;;16.95;100.00;99894.03;5032485;28;20049;-86
2023/08/01 09:07:23;;;;;;;10.43;5.25;;;;;;;16.77;100.00;99878.00;5014537;28;20103;-86
2023/08/01 09:09:49;;;;;;;8.25;4.97;;;;;;;16.80;100.00;99902.69;5032339;28;20033;-86
2023/08/01 09:12:15;;;;;;;10.50;4.43;;;;;;;16.75;100.00;99904.16;5014866;28;20028;-86
2023/08/01 09:14:41;;;;;;;9.02;4.18;;;;;;;16.63;100.00;99906.25;5014547;28;20468;-87
2023/08/01 09:17:09;;;;;;;8.00;4.35;;;;;;;16.54;100.00;99896.47;5015022;28;20040;-86
2023/08/01 09:19:35;;;;;;;9.40;4.30;;;;;;;16.47;100.00;99909.69;5032566;28;20041;-86
2023/08/01 09:22:01;;;;;;;6.68;3.88;;;;;;;16.47;100.00;99920.44;5032710;28;20041;-87
2023/08/01 09:24:27;;;;;;;7.38;3.85;;;;;;;16.41;100.00;99915.66;5014295;28;20033;-86
2023/08/01 09:26:52;;;;;;;10.63;4.72;;;;;;;16.33;100.00;99904.91;5014639;28;20033;-87
2023/08/01 09:29:20;;;;;;;10.82;5.60;;;;;;;16.31;100.00;99905.03;5032284;28;20105;-87
2023/08/01 09:31:46;;;;;;;9.48;5.05;;;;;;;16.32;100.00;99922.84;5032799;28;20037;-87
2023/08/01 09:34:23;;;;;;;9.25;5.25;;;;;;;16.37;100.00;99925.06;5014792;28;20041;-88
2023/08/01 09:36:57;;;;;;;9.18;5.13;;;;;;;16.17;100.00;99902.09;5014800;28;20033;-88
2023/08/01 09:39:22;;;;;;;5.35;3.38;;;;;;;16.12;100.00;99916.00;5031820;28;20466;-87
2023/08/01 09:41:57;;;;;;;6.97;3.10;;;;;;;16.23;100.00;99929.13;5014567;28;20034;-88
2023/08/01 09:44:26;;;;;;;5.78;3.08;;;;;;;16.18;100.00;99919.88;5014653;28;20030;-88
2023/08/01 09:47:07;;;;;;;6.03;2.95;;;;;;;16.29;100.00;99938.41;5014866;28;20026;-87
2023/08/01 09:49:37;;;;;;;5.85;2.63;;;;;;;16.05;100.00;99893.44;5014456;28;20049;-88
2023/08/01 09:52:02;;;;;;;6.65;3.10;;;;;;;16.19;100.00;99900.94;5032459;28;20542;-88
2023/08/01 09:54:28;;;;;;;6.72;3.20;;;;;;;16.48;100.00;99927.47;5031804;28;20025;-88
2023/08/01 09:56:54;;;;;;;6.88;2.75;;;;;;;16.65;100.00;99930.25;5014769;28;20032;-88
2023/08/01 09:59:24;;;;;;;8.18;3.63;;;;;;;16.98;100.00;99940.22;5032137;28;20029;-88
2023/08/01 10:01:55;;;;;;;9.07;4.15;;;;;;;17.13;100.00;99932.41;5014685;28;20127;-88
2023/08/01 10:04:23;;;;;;;7.30;3.33;;;;;;;17.39;100.00;99934.19;5032091;28;20029;-87
2023/08/01 10:06:58;;;;;;;8.02;3.47;;;;;;;17.51;100.00;99911.34;5014901;28;20059;-88
2023/08/01 10:09:24;;;;;;;7.25;3.70;;;;;;;17.73;100.00;99941.31;5013861;28;20071;-88
2023/08/01 10:11:51;;;;;;;8.85;4.30;;;;;;;18.04;100.00;99939.69;5032241;28;20094;-88
2023/08/01 10:14:19;;;;;;;9.23;4.35;;;;;;;18.13;100.00;99937.84;5017781;28;20018;-88
2023/08/01 10:16:49;;;;;;;11.45;4.57;;;;;;;18.33;100.00;99928.41;5018110;28;20032;-88
2023/08/01 10:19:14;;;;;;;10.90;4.43;;;;;;;18.67;100.00;99930.03;5017658;28;20168;-88
2023/08/01 10:21:42;;;;;;;10.75;5.30;;;;;;;19.02;100.00;99922.56;5018014;28;20080;-88
2023/08/01 10:24:08;;;;;;;10.80;4.80;;;;;;;19.06;98.24;99934.69;5016464;28;20037;-88
2023/08/01 10:26:34;;;;;;;11.88;4.45;;;;;;;18.97;97.25;99943.78;5017754;28;20388;-88
2023/08/01 10:29:02;;;;;;;10.63;4.43;;;;;;;18.78;94.55;99937.78;5017090;28;20116;-87
2023/08/01 10:31:27;;;;;;;9.52;4.53;;;;;;;18.50;97.64;99948.09;5017522;28;20060;-87
2023/08/01 10:34:06;;;;;;;9.82;4.57;;;;;;;18.33;99.84;99939.19;5035342;28;20445;-87
2023/08/01 10:36:32;;;;;;;8.75;4.63;;;;;;;18.17;98.77;99952.63;5017706;28;20031;-88
2023/08/01 10:39:00;;;;;;;10.88;4.63;;;;;;;18.02;96.52;99938.19;5017000;28;20089;-89
2023/08/01 10:41:26;;;;;;;13.13;4.65;;;;;;;18.09;98.52;99947.28;5017253;28;20029;-88
2023/08/01 10:43:51;;;;;;;13.15;4.35;;;;;;;17.97;99.29;99941.38;5017262;28;20024;-89
2023/08/01 10:46:17;;;;;;;10.55;4.13;;;;;;;17.90;99.68;99951.94;5017501;28;20120;-88
2023/08/01 10:48:52;;;;;;;12.65;4.68;;;;;;;17.96;100.00;99949.59;5017503;28;20064;-88
2023/08/01 10:51:18;;;;;;;9.20;4.18;;;;;;;17.79;98.91;99933.44;5034966;28;20033;-88
2023/08/01 10:53:44;;;;;;;12.77;4.80;;;;;;;17.79;100.00;99954.13;5016837;28;20020;-87
2023/08/01 10:56:18;;;;;;;10.32;4.47;;;;;;;17.60;98.28;99942.63;5017209;28;20022;-87
2023/08/01 10:58:43;;;;;;;9.23;4.38;;;;;;;17.66;100.00;99943.81;5035021;28;20104;-88
2023/08/01 11:01:09;;;;;;;14.02;4.32;;;;;;;17.87;100.00;99964.91;5017004;28;20091;-87
2023/08/01 11:03:41;;;;;;;10.38;4.25;;;;;;;17.84;100.00;99954.47;5016926;28;20025;-88
2023/08/01 11:06:07;;;;;;;12.18;4.47;;;;;;;17.87;99.50;99973.81;5017090;28;20120;-88
2023/08/01 11:08:40;;;;;;;11.25;4.28;;;;;;;17.60;99.65;99939.09;5016415;28;20421;-88
2023/08/01 11:11:08;;;;;;;7.30;3.50;;;;;;;17.73;98.69;99981.66;5016898;28;20026;-88